createdAt,value
2019-03-20T00:01:51.141Z,1.40
2019-03-20T00:04:18.236Z,1.13
2019-03-20T00:06:45.112Z,1.40
2019-03-20T00:09:11.785Z,0.83
2019-03-20T00:11:38.606Z,1.00
2019-03-20T00:14:05.299Z,1.27
2019-03-20T00:16:31.843Z,1.27
2019-03-20T00:18:58.633Z,1.90
2019-03-20T00:21:25.326Z,1.73
2019-03-20T00:23:52.017Z,1.73
2019-03-20T00:26:18.630Z,1.60
2019-03-20T00:28:45.232Z,1.33
2019-03-20T00:31:11.954Z,1.10
2019-03-20T00:33:38.628Z,1.87
2019-03-20T00:36:05.823Z,0.57
2019-03-20T00:38:32.487Z,1.30
2019-03-20T00:40:59.324Z,1.77
2019-03-20T00:43:25.963Z,0.77
2019-03-20T00:45:53.665Z,0.93
2019-03-20T00:48:20.745Z,1.83
2019-03-20T00:50:49.658Z,1.47
2019-03-20T00:53:16.230Z,1.73
2019-03-20T00:55:44.643Z,2.17
2019-03-20T00:58:11.888Z,1.33
2019-03-20T01:00:38.577Z,1.30
2019-03-20T01:03:05.480Z,2.17
2019-03-20T01:05:33.130Z,1.33
2019-03-20T01:08:01.526Z,1.90
2019-03-20T01:10:28.227Z,1.67
2019-03-20T01:12:55.975Z,1.10
2019-03-20T01:15:23.449Z,1.57
2019-03-20T01:17:51.065Z,1.73
2019-03-20T01:20:20.315Z,1.10
2019-03-20T01:22:48.002Z,0.90
2019-03-20T01:25:15.660Z,0.93
2019-03-20T01:27:42.893Z,1.67
2019-03-20T01:30:34.724Z,1.20
2019-03-20T01:33:09.136Z,1.12
2019-03-20T01:35:35.791Z,1.20
2019-03-20T01:38:03.924Z,1.63
2019-03-20T01:40:30.384Z,1.70
2019-03-20T01:42:58.151Z,1.20
2019-03-20T01:45:24.736Z,1.40
2019-03-20T01:47:51.178Z,0.87
2019-03-20T01:50:18.036Z,0.90
2019-03-20T01:52:44.582Z,0.70
2019-03-20T01:55:11.155Z,1.07
2019-03-20T01:57:37.927Z,1.23
2019-03-20T02:00:06.588Z,0.70
2019-03-20T02:02:33.320Z,1.10
2019-03-20T02:04:59.887Z,0.90
2019-03-20T02:07:26.433Z,1.93
2019-03-20T02:09:53.577Z,1.37
2019-03-20T02:12:20.034Z,1.10
2019-03-20T02:14:46.564Z,2.07
2019-03-20T02:17:13.031Z,2.30
2019-03-20T02:19:39.473Z,1.40
2019-03-20T02:22:07.024Z,0.80
2019-03-20T02:24:34.114Z,0.80
2019-03-20T02:27:00.593Z,1.50
2019-03-20T02:29:27.793Z,2.00
2019-03-20T02:31:54.723Z,1.80
2019-03-20T02:34:21.235Z,0.83
2019-03-20T02:36:48.224Z,1.17
2019-03-20T02:39:16.176Z,0.90
2019-03-20T02:41:42.629Z,1.63
2019-03-20T02:44:09.261Z,0.57
2019-03-20T02:46:36.187Z,1.30
2019-03-20T02:49:02.929Z,1.00
2019-03-20T02:51:29.372Z,0.97
2019-03-20T02:53:56.701Z,1.10
2019-03-20T02:56:23.957Z,0.83
2019-03-20T02:58:50.388Z,1.30
2019-03-20T03:01:16.983Z,2.20
2019-03-20T03:03:43.410Z,1.63
2019-03-20T03:06:10.728Z,1.40
2019-03-20T03:08:38.063Z,1.97
2019-03-20T03:11:04.516Z,1.33
2019-03-20T03:13:31.018Z,0.90
2019-03-20T03:15:57.603Z,1.87
2019-03-20T03:18:24.748Z,1.53
2019-03-20T03:20:51.754Z,1.00
2019-03-20T03:23:18.364Z,1.03
2019-03-20T03:25:44.898Z,1.30
2019-03-20T03:28:11.476Z,1.77
2019-03-20T03:30:37.907Z,2.27
2019-03-20T03:33:04.374Z,1.60
2019-03-20T03:35:31.110Z,1.20
2019-03-20T03:37:57.556Z,1.07
2019-03-20T03:40:25.379Z,1.03
2019-03-20T03:42:52.032Z,0.87
2019-03-20T03:45:18.523Z,0.63
2019-03-20T03:47:44.970Z,0.57
2019-03-20T03:50:11.507Z,1.13
2019-03-20T03:52:37.971Z,1.33
2019-03-20T03:55:07.624Z,1.60
2019-03-20T03:57:34.384Z,1.40
2019-03-20T04:00:01.081Z,2.13
2019-03-20T04:02:27.664Z,1.43
2019-03-20T04:04:54.208Z,1.27
2019-03-20T04:07:23.507Z,1.40
2019-03-20T04:09:49.012Z,0.57
2019-03-20T04:12:15.569Z,1.77
2019-03-20T04:14:42.125Z,1.47
2019-03-20T04:17:22.063Z,1.50
2019-03-20T04:19:48.511Z,1.37
2019-03-20T04:22:16.979Z,1.53
2019-03-20T04:24:43.547Z,2.30
2019-03-20T04:27:10.000Z,1.50
2019-03-20T04:29:37.344Z,1.17
2019-03-20T04:32:04.013Z,1.57
2019-03-20T04:34:30.929Z,1.30
2019-03-20T04:36:57.392Z,1.63
2019-03-20T04:39:24.367Z,1.10
2019-03-20T04:41:50.919Z,1.80
2019-03-20T04:44:17.796Z,2.03
2019-03-20T04:46:44.281Z,0.57
2019-03-20T04:49:10.724Z,1.37
2019-03-20T04:51:37.215Z,1.23
2019-03-20T04:54:03.796Z,1.87
2019-03-20T04:56:30.227Z,1.27
2019-03-20T04:58:56.710Z,1.53
2019-03-20T05:01:23.194Z,0.93
2019-03-20T05:03:49.775Z,0.67
2019-03-20T05:06:16.204Z,0.87
2019-03-20T05:08:43.468Z,0.40
2019-03-20T05:11:09.923Z,0.60
2019-03-20T05:13:36.391Z,1.53
2019-03-20T05:16:03.174Z,1.80
2019-03-20T05:18:29.773Z,1.17
2019-03-20T05:20:56.200Z,1.00
2019-03-20T05:23:23.288Z,1.17
2019-03-20T05:25:50.122Z,1.57
2019-03-20T05:28:16.595Z,1.03
2019-03-20T05:30:43.334Z,0.90
2019-03-20T05:33:10.000Z,1.47
2019-03-20T05:35:36.467Z,3.63
2019-03-20T05:38:03.418Z,3.10
2019-03-20T05:40:30.015Z,2.77
2019-03-20T05:42:57.073Z,3.27
2019-03-20T05:45:23.988Z,3.73
2019-03-20T05:47:50.545Z,2.87
2019-03-20T05:50:18.131Z,4.17
2019-03-20T05:52:44.726Z,2.57
2019-03-20T05:55:11.270Z,2.67
2019-03-20T05:57:37.832Z,3.33
2019-03-20T06:00:14.278Z,3.30
2019-03-20T06:02:40.862Z,3.05
2019-03-20T06:05:07.872Z,3.67
2019-03-20T06:07:34.652Z,4.58
2019-03-20T06:10:02.171Z,3.92
2019-03-20T06:12:30.590Z,3.30
2019-03-20T06:14:57.596Z,4.50
2019-03-20T06:17:24.523Z,3.75
2019-03-20T06:19:51.212Z,5.62
2019-03-20T06:22:17.654Z,4.55
2019-03-20T06:24:44.225Z,5.25
2019-03-20T06:27:10.767Z,3.72
2019-03-20T06:29:37.333Z,4.05
2019-03-20T06:32:03.773Z,4.28
2019-03-20T06:34:30.262Z,5.03
2019-03-20T06:36:57.156Z,4.92
2019-03-20T06:39:24.432Z,5.35
2019-03-20T06:41:50.963Z,3.77
2019-03-20T06:44:17.809Z,5.00
2019-03-20T06:46:44.376Z,4.15
2019-03-20T06:49:10.986Z,3.75
2019-03-20T06:51:37.434Z,4.03
2019-03-20T06:54:04.449Z,3.85
2019-03-20T06:56:30.959Z,4.50
2019-03-20T06:59:18.180Z,3.90
2019-03-20T07:01:45.304Z,3.27
2019-03-20T07:04:15.828Z,4.58
2019-03-20T07:06:51.968Z,5.35
2019-03-20T07:09:45.292Z,4.37
2019-03-20T07:12:11.829Z,3.90
2019-03-20T07:14:38.407Z,3.55
2019-03-20T07:17:04.834Z,3.58
2019-03-20T07:19:31.303Z,3.77
2019-03-20T07:21:57.777Z,3.75
2019-03-20T07:24:24.342Z,3.70
2019-03-20T07:26:51.009Z,2.90
2019-03-20T07:29:17.600Z,3.98
2019-03-20T07:31:45.343Z,3.67
2019-03-20T07:34:12.066Z,3.25
2019-03-20T07:36:38.630Z,5.87
2019-03-20T07:39:08.309Z,2.85
2019-03-20T07:41:34.858Z,3.98
2019-03-20T07:44:01.469Z,4.65
2019-03-20T07:46:28.043Z,2.80
2019-03-20T07:48:54.667Z,3.15
2019-03-20T07:51:21.216Z,3.42
2019-03-20T07:53:47.933Z,2.55
2019-03-20T07:56:14.483Z,2.50
2019-03-20T07:58:41.488Z,4.25
2019-03-20T08:01:08.635Z,2.58
2019-03-20T08:03:35.008Z,3.50
2019-03-20T08:06:03.205Z,2.55
2019-03-20T08:08:29.854Z,2.10
2019-03-20T08:10:56.337Z,3.22
2019-03-20T08:13:22.790Z,2.60
2019-03-20T08:15:49.368Z,2.65
2019-03-20T08:18:15.930Z,1.92
2019-03-20T08:20:42.499Z,2.12
2019-03-20T08:23:08.990Z,2.65
2019-03-20T08:25:35.444Z,2.17
2019-03-20T08:28:01.979Z,2.10
2019-03-20T08:30:29.651Z,1.17
2019-03-20T08:32:56.199Z,2.92
2019-03-20T08:35:23.092Z,1.10
2019-03-20T08:37:49.765Z,2.42
2019-03-20T08:40:17.376Z,1.07
2019-03-20T08:42:43.848Z,1.37
2019-03-20T08:45:18.211Z,1.82
2019-03-20T08:47:44.957Z,2.22
2019-03-20T08:50:14.462Z,3.12
2019-03-20T08:52:41.032Z,2.00
2019-03-20T08:55:11.219Z,2.52
2019-03-20T08:57:38.276Z,1.27
2019-03-20T09:00:14.050Z,1.37
2019-03-20T09:02:40.841Z,1.25
2019-03-20T09:05:09.131Z,0.80
2019-03-20T09:07:46.692Z,1.05
2019-03-20T09:10:13.954Z,1.55
2019-03-20T09:12:40.711Z,0.88
2019-03-20T09:15:09.834Z,1.35
2019-03-20T09:17:36.409Z,2.17
2019-03-20T09:20:06.190Z,1.25
2019-03-20T09:22:34.564Z,0.93
2019-03-20T09:25:01.100Z,1.45
2019-03-20T09:27:27.631Z,1.20
2019-03-20T09:29:56.346Z,2.27
2019-03-20T09:32:23.969Z,2.17
2019-03-20T09:34:51.067Z,1.20
2019-03-20T09:37:19.185Z,2.08
2019-03-20T09:39:46.285Z,1.98
2019-03-20T09:42:13.956Z,0.68
2019-03-20T09:44:40.784Z,1.50
2019-03-20T09:47:07.643Z,1.65
2019-03-20T09:49:34.191Z,1.27
2019-03-20T09:52:01.011Z,0.65
2019-03-20T09:54:27.470Z,0.82
2019-03-20T09:56:53.983Z,1.17
2019-03-20T09:59:20.597Z,1.45
2019-03-20T10:01:48.742Z,0.85
2019-03-20T10:04:15.348Z,1.25
2019-03-20T10:06:41.935Z,1.20
2019-03-20T10:09:08.467Z,2.40
2019-03-20T10:11:35.245Z,0.82
2019-03-20T10:14:01.816Z,1.25
2019-03-20T10:16:28.315Z,1.20
2019-03-20T10:18:54.820Z,0.78
2019-03-20T10:21:22.082Z,0.35
2019-03-20T10:23:49.522Z,1.05
2019-03-20T10:26:16.015Z,1.25
2019-03-20T10:28:42.578Z,0.88
2019-03-20T10:31:09.040Z,0.40
2019-03-20T10:33:35.494Z,1.37
2019-03-20T10:36:01.959Z,0.70
2019-03-20T10:38:28.508Z,1.10
2019-03-20T10:40:54.977Z,0.88
2019-03-20T10:43:21.450Z,0.72
2019-03-20T10:45:48.129Z,0.80
2019-03-20T10:48:14.589Z,0.75
2019-03-20T10:50:41.663Z,0.72
2019-03-20T10:53:08.513Z,0.62
2019-03-20T10:55:35.389Z,0.72
2019-03-20T10:58:01.968Z,0.60
2019-03-20T11:00:28.959Z,0.93
2019-03-20T11:02:55.830Z,0.80
2019-03-20T11:05:22.290Z,1.15
2019-03-20T11:07:49.895Z,0.70
2019-03-20T11:10:26.159Z,0.20
2019-03-20T11:12:54.964Z,0.15
2019-03-20T11:15:22.318Z,0.57
2019-03-20T11:17:49.027Z,0.82
2019-03-20T11:20:19.850Z,1.32
2019-03-20T11:22:47.151Z,0.80
2019-03-20T11:25:23.598Z,0.80
2019-03-20T11:27:50.474Z,1.12
2019-03-20T11:30:31.674Z,0.80
2019-03-20T11:32:59.317Z,0.13
2019-03-20T11:35:25.993Z,0.60
2019-03-20T11:37:52.908Z,0.68
2019-03-20T11:40:21.855Z,1.02
2019-03-20T11:42:49.317Z,1.40
2019-03-20T11:45:16.016Z,0.68
2019-03-20T11:47:42.594Z,0.53
2019-03-20T11:50:15.584Z,0.78
2019-03-20T11:52:43.131Z,0.40
2019-03-20T11:55:09.670Z,0.45
2019-03-20T11:57:37.387Z,0.30
2019-03-20T12:00:11.579Z,0.45
2019-03-20T12:02:39.060Z,0.40
2019-03-20T12:05:08.628Z,0.55
2019-03-20T12:07:35.250Z,0.65
2019-03-20T12:10:08.001Z,0.28
2019-03-20T12:12:34.611Z,0.60
2019-03-20T12:15:02.188Z,0.30
2019-03-20T12:17:30.297Z,0.75
2019-03-20T12:19:58.218Z,0.57
2019-03-20T12:22:25.154Z,0.40
2019-03-20T12:24:52.203Z,0.17
2019-03-20T12:27:18.785Z,0.60
2019-03-20T12:29:46.119Z,0.68
2019-03-20T12:32:12.690Z,0.53
2019-03-20T12:34:39.157Z,0.50
2019-03-20T12:37:05.978Z,0.60
2019-03-20T12:39:32.498Z,0.25
2019-03-20T12:41:58.943Z,0.68
2019-03-20T12:44:25.704Z,0.90
2019-03-20T12:46:53.042Z,0.30
2019-03-20T12:49:20.410Z,0.50
2019-03-20T12:51:47.551Z,0.40
2019-03-20T12:54:15.083Z,0.50
2019-03-20T12:56:41.625Z,0.75
2019-03-20T12:59:09.426Z,0.42
2019-03-20T13:01:36.574Z,1.50
2019-03-20T13:04:04.091Z,0.45
2019-03-20T13:06:31.649Z,0.88
2019-03-20T13:08:58.129Z,0.68
2019-03-20T13:11:25.943Z,0.70
2019-03-20T13:13:52.402Z,0.30
2019-03-20T13:16:18.844Z,0.70
2019-03-20T13:18:45.319Z,0.25
2019-03-20T13:21:11.763Z,0.20
2019-03-20T13:23:38.467Z,0.53
2019-03-20T13:26:06.802Z,0.53
2019-03-20T13:28:33.298Z,0.53
2019-03-20T13:31:06.436Z,1.65
2019-03-20T13:33:32.912Z,1.27
2019-03-20T13:36:00.099Z,0.10
2019-03-20T13:38:27.460Z,0.45
2019-03-20T13:40:54.020Z,0.20
2019-03-20T13:43:20.814Z,0.20
2019-03-20T13:45:48.786Z,0.40
2019-03-20T13:48:16.355Z,0.28
2019-03-20T13:50:44.030Z,0.10
2019-03-20T13:53:11.365Z,0.08
2019-03-20T13:55:38.601Z,0.47
2019-03-20T13:58:05.158Z,0.33
2019-03-20T14:00:32.514Z,0.65
2019-03-20T14:02:59.124Z,0.20
2019-03-20T14:05:26.065Z,0.70
2019-03-20T14:07:52.591Z,0.28
2019-03-20T14:10:29.797Z,1.15
2019-03-20T14:12:56.340Z,0.20
2019-03-20T14:15:24.044Z,0.40
2019-03-20T14:17:51.034Z,0.20
2019-03-20T14:20:23.745Z,0.25
2019-03-20T14:22:50.545Z,0.65
2019-03-20T14:25:17.919Z,0.80
2019-03-20T14:27:44.736Z,0.20
2019-03-20T14:30:16.495Z,0.37
2019-03-20T14:32:43.664Z,0.23
2019-03-20T14:35:10.259Z,0.72
2019-03-20T14:37:37.637Z,0.57
2019-03-20T14:40:08.780Z,0.60
2019-03-20T14:42:35.939Z,0.35
2019-03-20T14:45:04.091Z,0.37
2019-03-20T14:47:30.774Z,0.57
2019-03-20T14:49:57.986Z,0.42
2019-03-20T14:52:24.681Z,0.50
2019-03-20T14:54:52.179Z,0.20
2019-03-20T14:57:19.317Z,0.78
2019-03-20T14:59:46.312Z,0.20
2019-03-20T15:02:13.420Z,0.93
2019-03-20T15:04:40.755Z,0.93
2019-03-20T15:07:08.743Z,0.28
2019-03-20T15:09:35.988Z,1.00
2019-03-20T15:12:03.119Z,0.10
2019-03-20T15:14:30.291Z,0.90
2019-03-20T15:16:57.245Z,0.90
2019-03-20T15:19:24.572Z,1.00
2019-03-20T15:21:51.520Z,0.53
2019-03-20T15:24:18.601Z,0.40
2019-03-20T15:26:45.556Z,0.33
2019-03-20T15:29:12.408Z,0.40
2019-03-20T15:31:39.303Z,1.20
2019-03-20T15:34:06.026Z,0.42
2019-03-20T15:36:32.968Z,0.82
2019-03-20T15:38:59.928Z,0.53
2019-03-20T15:41:26.846Z,0.68
2019-03-20T15:44:02.084Z,0.57
2019-03-20T15:46:22.349Z,0.93
2019-03-20T15:48:49.506Z,0.62
2019-03-20T15:51:16.574Z,0.88
2019-03-20T15:53:43.459Z,0.82
2019-03-20T15:56:10.492Z,1.10
2019-03-20T15:58:37.184Z,1.45
2019-03-20T16:01:04.413Z,1.00
2019-03-20T16:03:37.944Z,0.65
2019-03-20T16:06:04.907Z,0.30
2019-03-20T16:08:32.235Z,1.05
2019-03-20T16:11:06.450Z,1.02
2019-03-20T16:13:28.208Z,0.77
2019-03-20T16:15:57.069Z,0.68
2019-03-20T16:18:24.156Z,0.50
2019-03-20T16:20:51.381Z,0.10
2019-03-20T16:23:18.539Z,0.10
2019-03-20T16:25:46.126Z,0.10
2019-03-20T16:28:13.736Z,0.47
2019-03-20T16:30:40.875Z,0.20
2019-03-20T16:33:08.223Z,1.05
2019-03-20T16:35:35.068Z,0.72
2019-03-20T16:38:02.303Z,1.15
2019-03-20T16:40:31.788Z,0.30
2019-03-20T16:42:58.546Z,0.45
2019-03-20T16:45:33.794Z,0.85
2019-03-20T16:48:01.131Z,0.55
2019-03-20T16:50:28.183Z,0.50
2019-03-20T16:52:55.130Z,0.83
2019-03-20T16:55:22.091Z,0.63
2019-03-20T16:57:49.072Z,0.85
2019-03-20T17:00:27.213Z,0.80
2019-03-20T17:02:54.367Z,0.80
2019-03-20T17:05:24.174Z,0.40
2019-03-20T17:07:51.380Z,1.10
2019-03-20T17:10:31.270Z,0.50
2019-03-20T17:12:59.143Z,0.30
2019-03-20T17:15:39.915Z,1.37
2019-03-20T17:18:07.052Z,1.50
2019-03-20T17:20:34.056Z,1.10
2019-03-20T17:23:01.568Z,1.27
2019-03-20T17:25:29.004Z,1.30
2019-03-20T17:27:55.929Z,0.77
2019-03-20T17:30:26.097Z,0.50
2019-03-20T17:32:53.319Z,0.73
2019-03-20T17:35:20.990Z,1.47
2019-03-20T17:37:49.060Z,2.03
2019-03-20T17:40:25.940Z,1.53
2019-03-20T17:42:52.789Z,0.97
2019-03-20T17:45:28.414Z,1.30
2019-03-20T17:47:55.352Z,1.03
2019-03-20T17:50:27.371Z,1.03
2019-03-20T17:52:54.380Z,2.05
2019-03-20T17:55:21.508Z,1.17
2019-03-20T17:57:57.054Z,0.50
2019-03-20T18:00:38.635Z,1.27
2019-03-20T18:03:06.609Z,0.40
2019-03-20T18:05:39.328Z,1.77
2019-03-20T18:08:14.889Z,0.80
2019-03-20T18:10:49.850Z,1.47
2019-03-20T18:13:17.623Z,1.73
2019-03-20T18:15:45.586Z,1.77
2019-03-20T18:18:12.671Z,0.50
2019-03-20T18:20:39.401Z,1.37
2019-03-20T18:23:07.252Z,1.20
2019-03-20T18:25:34.207Z,3.10
2019-03-20T18:28:01.432Z,1.43
2019-03-20T18:30:30.497Z,2.57
2019-03-20T18:32:58.013Z,2.90
2019-03-20T18:35:25.094Z,1.10
2019-03-20T18:37:52.178Z,1.30
2019-03-20T18:40:23.826Z,1.30
2019-03-20T18:42:51.078Z,1.15
2019-03-20T18:45:19.417Z,2.17
2019-03-20T18:47:47.118Z,1.13
2019-03-20T18:50:17.541Z,0.30
2019-03-20T18:52:44.897Z,0.93
2019-03-20T18:55:14.056Z,2.00
2019-03-20T18:57:41.285Z,3.63
2019-03-20T19:00:14.827Z,1.73
2019-03-20T19:02:41.770Z,3.23
2019-03-20T19:05:18.603Z,1.30
2019-03-20T19:07:47.021Z,0.87
2019-03-20T19:10:14.293Z,2.03
2019-03-20T19:12:41.306Z,1.03
2019-03-20T19:15:10.249Z,2.00
2019-03-20T19:17:37.491Z,3.00
2019-03-20T19:20:10.669Z,1.40
2019-03-20T19:22:37.766Z,2.80
2019-03-20T19:25:08.269Z,2.40
2019-03-20T19:27:35.473Z,2.60
2019-03-20T19:30:04.481Z,1.80
2019-03-20T19:32:32.220Z,3.20
2019-03-20T19:35:00.920Z,1.73
2019-03-20T19:37:28.108Z,3.07
2019-03-20T19:39:55.817Z,3.33
2019-03-20T19:42:24.164Z,2.10
2019-03-20T19:44:53.809Z,2.40
2019-03-20T19:47:22.831Z,2.33
2019-03-20T19:49:50.093Z,1.40
2019-03-20T19:52:17.612Z,1.57
2019-03-20T19:54:44.859Z,1.63
2019-03-20T19:57:11.990Z,2.97
2019-03-20T19:59:39.139Z,5.50
2019-03-20T20:02:06.501Z,2.57
2019-03-20T20:04:34.170Z,3.77
2019-03-20T20:07:01.195Z,2.67
2019-03-20T20:09:28.037Z,2.77
2019-03-20T20:11:55.673Z,2.87
2019-03-20T20:14:23.875Z,1.90
2019-03-20T20:16:51.246Z,1.03
2019-03-20T20:19:18.781Z,1.37
2019-03-20T20:21:46.464Z,0.80
2019-03-20T20:24:14.813Z,0.63
2019-03-20T20:26:41.864Z,1.43
2019-03-20T20:29:08.833Z,1.40
2019-03-20T20:31:36.224Z,1.40
2019-03-20T20:34:04.381Z,1.87
2019-03-20T20:36:32.187Z,1.23
2019-03-20T20:39:00.312Z,1.23
2019-03-20T20:41:29.111Z,0.97
2019-03-20T20:43:57.183Z,0.40
2019-03-20T20:46:25.020Z,0.50
2019-03-20T20:48:52.814Z,0.80
2019-03-20T20:51:20.511Z,0.50
2019-03-20T20:53:48.145Z,1.00
2019-03-20T20:56:15.115Z,0.70
2019-03-20T20:58:43.421Z,1.03
2019-03-20T21:01:11.166Z,2.03
2019-03-20T21:03:39.048Z,1.27
2019-03-20T21:06:06.286Z,0.83
2019-03-20T21:08:33.727Z,1.60
2019-03-20T21:11:00.936Z,0.53
2019-03-20T21:13:27.839Z,1.67
2019-03-20T21:15:55.567Z,1.30
2019-03-20T21:18:47.703Z,1.60
2019-03-20T21:21:16.895Z,0.80
2019-03-20T21:24:22.003Z,0.90
2019-03-20T21:27:04.746Z,0.83
2019-03-20T21:29:50.738Z,0.63
2019-03-20T21:32:27.700Z,1.60
2019-03-20T21:35:31.961Z,0.87
2019-03-20T21:38:07.329Z,1.73
2019-03-20T21:41:02.618Z,0.80
2019-03-20T21:43:48.075Z,1.57
2019-03-20T21:46:22.029Z,1.30
2019-03-20T21:48:48.705Z,0.63
2019-03-20T21:51:17.073Z,0.53
2019-03-20T21:54:14.558Z,2.40
2019-03-20T21:56:51.337Z,0.77
2019-03-20T21:59:44.911Z,0.93
2019-03-20T22:02:39.866Z,0.83
2019-03-20T22:05:10.215Z,1.40
2019-03-20T22:07:38.267Z,1.37
2019-03-20T22:10:27.049Z,1.43
2019-03-20T22:13:18.705Z,0.53
2019-03-20T22:15:53.120Z,0.87
2019-03-20T22:18:29.613Z,1.53
2019-03-20T22:21:15.222Z,0.50
2019-03-20T22:24:20.066Z,2.13
2019-03-20T22:26:59.600Z,1.00
2019-03-20T22:29:26.817Z,1.27
2019-03-20T22:32:18.171Z,1.30
2019-03-20T22:35:04.227Z,1.00
2019-03-20T22:37:31.573Z,0.70
2019-03-20T22:40:14.320Z,1.10
2019-03-20T22:42:57.000Z,1.37
2019-03-20T22:46:03.174Z,1.33
2019-03-20T22:48:39.743Z,1.63
2019-03-20T22:51:26.885Z,2.70
2019-03-20T22:54:14.480Z,1.93
2019-03-20T22:56:50.981Z,1.57
2019-03-20T22:59:17.589Z,1.87
2019-03-20T23:01:54.079Z,1.40
2019-03-20T23:04:27.847Z,0.53
2019-03-20T23:06:54.804Z,0.97
2019-03-20T23:09:21.556Z,1.07
2019-03-20T23:11:48.132Z,1.73
2019-03-20T23:14:14.690Z,1.47
2019-03-20T23:16:41.688Z,1.10
2019-03-20T23:19:08.252Z,1.20
2019-03-20T23:21:34.808Z,1.47
2019-03-20T23:24:01.254Z,2.03
2019-03-20T23:26:27.804Z,2.17
2019-03-20T23:28:54.762Z,1.97
2019-03-20T23:31:21.486Z,1.67
2019-03-20T23:33:48.049Z,1.17
2019-03-20T23:36:14.639Z,2.00
2019-03-20T23:38:41.355Z,0.43
2019-03-20T23:41:08.314Z,0.77
2019-03-20T23:43:35.155Z,0.57
2019-03-20T23:46:03.125Z,1.50
2019-03-20T23:48:43.000Z,1.33
2019-03-20T23:51:22.214Z,0.50
2019-03-20T23:53:50.561Z,2.73
2019-03-20T23:56:17.147Z,1.60
2019-03-20T23:58:43.706Z,0.90
